Terminal Aerodrome Forecast
Issued by NWS Wilmington, NC

Home | Current Version | Previous Version | Text Only | Print | Product List | Glossary On
Versions: 1 2 3 4 5 6 7 8 9 10 11 12 13 14 15 16 17 18 19 20 21 22 23 24 25 26 27 28 29 30 31
000
FTUS42 KILM 152300 CCA
TAFFLO
TAF COR
KFLO 152357Z 1600/1624 14003KT P6SM SCT020 OVC035
      TEMPO 1603/1606 BKN020
     FM160600 00000KT 6SM BR SCT008 OVC015
     FM160800 VRB02KT 4SM BR BKN004 OVC008
     FM161500 35005KT P6SM SCT015 BKN250=

USA.gov is the U.S. government's official web portal to all federal, state and local government web resources and services.